Aérodrome :
LOGIN :

S'inscrire | Disclaimer

   EN    FR    IT 

 










Légende :    VFR   VFR Marginal   IFR   IFR Intensif   IFR Très Intensif
Visi : 
Plafond : 
>= 8 km
>= 3000ft
5 à 8 km
1000 à 3000 ft
1500m à 5 km
500 à 1000 ft
800 à 1500m
200 à 500 ft
< 800m
< 200 ft
Symboles :   Orages  Brouillard  Fortes neiges  Fortes précipitations  Vent > 20 kt
SIGMETs :   Divers  Orages  Givrage  Turbulence  Onde Orograph.  Cendres Volcan.






- Altitude de l'aérodrome : 82 ft
- Code IATA : AAR


EKAH - Aarhus Tirstrup

DERNIER METAR :
  • 262120Z AUTO 20004KT 130V260 9999 BKN015/// 09/08 Q0999

METARs EXPIRÉS :
  • 262050Z AUTO 19004KT 130V250 9999 FEW016/// 09/08 Q0999
  • 262020Z AUTO 19004KT 140V250 9999 NCD 09/08 Q0999
  • 261950Z AUTO 16003KT 9999 FEW048/// 10/08 Q0999
  • 261920Z AUTO 18003KT 9999 FEW013/// FEW058/// 10/08 Q0999
  • 261850Z AUTO 20004KT 130V260 9999 BKN039/// 11/08 Q0999

TAF TAF EKAH
Valide du 26 à 18h jusqu'au 27 à 18h UTC


261707Z 2618/2718 18010KT 9999 BKN018
TEMPO 2618/2709 -SHRA BKN012 FEW020CB
TEMPO 2709/2714 20015G28KT -SHRA BKN012 FEW020CB
TEMPO 2714/2718 4000 SHRA BKN010 SCT020CB



MET'MAP, la Météo Aéronautique d'un coup d'oeil ! - Copyright ORBIFLY Décembre 2007 - Disclaimer

ORBIFLY MET'MAP TEAM :

Programmation & Développement : Alexandra Zaïnal
Sur une idée originale de : Baudouin d'Aumeries
Assistance à la programmation : Marc-Olivier Méhu
Soutien technique & logistique : Manuel Goepfert

Contact : metmap@orbifly.com




SOURCES & CREDITS :

   NOAA